sensor_id;sensor_type;location;lat;lon;timestamp;P1;durP1;ratioP1;P2;durP2;ratioP2
20721;SDS011;10522;52.198;9.890;2024-03-02T00:02:11;19.60;;;13.07;;
20721;SDS011;10522;52.198;9.890;2024-03-02T00:04:37;20.80;;;13.93;;
20721;SDS011;10522;52.198;9.890;2024-03-02T00:07:03;19.13;;;12.47;;
20721;SDS011;10522;52.198;9.890;2024-03-02T00:09:29;21.43;;;14.27;;
20721;SDS011;10522;52.198;9.890;2024-03-02T00:11:55;24.67;;;12.87;;
20721;SDS011;10522;52.198;9.890;2024-03-02T00:14:21;20.10;;;13.33;;
20721;SDS011;10522;52.198;9.890;2024-03-02T00:16:49;26.67;;;15.10;;
20721;SDS011;10522;52.198;9.890;2024-03-02T00:19:16;21.10;;;14.27;;
20721;SDS011;10522;52.198;9.890;2024-03-02T00:21:42;21.60;;;13.47;;
20721;SDS011;10522;52.198;9.890;2024-03-02T00:24:18;25.57;;;14.37;;
20721;SDS011;10522;52.198;9.890;2024-03-02T00:26:56;25.50;;;14.93;;
20721;SDS011;10522;52.198;9.890;2024-03-02T00:29:22;27.43;;;15.53;;
20721;SDS011;10522;52.198;9.890;2024-03-02T00:31:47;23.50;;;13.37;;
20721;SDS011;10522;52.198;9.890;2024-03-02T00:34:13;25.53;;;14.53;;
20721;SDS011;10522;52.198;9.890;2024-03-02T00:36:41;25.53;;;14.90;;
20721;SDS011;10522;52.198;9.890;2024-03-02T00:39:07;24.80;;;15.20;;
20721;SDS011;10522;52.198;9.890;2024-03-02T00:41:33;23.30;;;14.93;;
20721;SDS011;10522;52.198;9.890;2024-03-02T00:44:01;24.97;;;14.30;;
20721;SDS011;10522;52.198;9.890;2024-03-02T00:46:34;24.03;;;15.30;;
20721;SDS011;10522;52.198;9.890;2024-03-02T00:49:04;22.37;;;13.80;;
20721;SDS011;10522;52.198;9.890;2024-03-02T00:51:47;24.83;;;15.53;;
20721;SDS011;10522;52.198;9.890;2024-03-02T00:54:20;26.03;;;14.73;;
20721;SDS011;10522;52.198;9.890;2024-03-02T00:56:50;23.37;;;14.03;;
20721;SDS011;10522;52.198;9.890;2024-03-02T00:59:16;27.57;;;16.43;;
20721;SDS011;10522;52.198;9.890;2024-03-02T01:01:42;24.80;;;16.27;;
20721;SDS011;10522;52.198;9.890;2024-03-02T01:04:08;26.60;;;16.00;;
20721;SDS011;10522;52.198;9.890;2024-03-02T01:06:37;24.53;;;15.07;;
20721;SDS011;10522;52.198;9.890;2024-03-02T01:09:03;24.57;;;15.87;;
20721;SDS011;10522;52.198;9.890;2024-03-02T01:11:29;26.03;;;15.63;;
20721;SDS011;10522;52.198;9.890;2024-03-02T01:13:55;25.97;;;15.73;;
20721;SDS011;10522;52.198;9.890;2024-03-02T01:16:21;25.10;;;15.70;;
20721;SDS011;10522;52.198;9.890;2024-03-02T01:18:46;26.37;;;15.93;;
20721;SDS011;10522;52.198;9.890;2024-03-02T01:21:12;23.93;;;16.03;;
20721;SDS011;10522;52.198;9.890;2024-03-02T01:23:38;25.00;;;15.87;;
20721;SDS011;10522;52.198;9.890;2024-03-02T01:26:04;27.57;;;16.47;;
20721;SDS011;10522;52.198;9.890;2024-03-02T01:28:30;25.03;;;16.00;;
20721;SDS011;10522;52.198;9.890;2024-03-02T01:30:56;24.40;;;16.27;;
20721;SDS011;10522;52.198;9.890;2024-03-02T01:33:22;25.30;;;15.63;;
20721;SDS011;10522;52.198;9.890;2024-03-02T01:35:47;23.90;;;14.33;;
20721;SDS011;10522;52.198;9.890;2024-03-02T01:38:13;26.83;;;15.80;;
20721;SDS011;10522;52.198;9.890;2024-03-02T01:40:39;23.70;;;15.37;;
20721;SDS011;10522;52.198;9.890;2024-03-02T01:43:05;25.97;;;15.60;;
20721;SDS011;10522;52.198;9.890;2024-03-02T01:45:31;25.33;;;15.20;;
20721;SDS011;10522;52.198;9.890;2024-03-02T01:47:57;25.27;;;15.20;;
20721;SDS011;10522;52.198;9.890;2024-03-02T01:50:32;27.60;;;15.80;;
20721;SDS011;10522;52.198;9.890;2024-03-02T01:52:58;28.67;;;16.37;;
20721;SDS011;10522;52.198;9.890;2024-03-02T01:55:25;26.90;;;16.00;;
20721;SDS011;10522;52.198;9.890;2024-03-02T01:57:51;27.43;;;15.70;;
20721;SDS011;10522;52.198;9.890;2024-03-02T02:00:18;24.57;;;15.47;;
20721;SDS011;10522;52.198;9.890;2024-03-02T02:02:45;25.73;;;15.60;;
20721;SDS011;10522;52.198;9.890;2024-03-02T02:05:13;27.93;;;15.73;;
20721;SDS011;10522;52.198;9.890;2024-03-02T02:07:42;25.17;;;15.43;;
20721;SDS011;10522;52.198;9.890;2024-03-02T02:10:08;26.00;;;15.00;;
20721;SDS011;10522;52.198;9.890;2024-03-02T02:12:37;25.70;;;15.27;;
20721;SDS011;10522;52.198;9.890;2024-03-02T02:15:04;29.60;;;16.50;;
20721;SDS011;10522;52.198;9.890;2024-03-02T02:17:46;24.70;;;14.87;;
20721;SDS011;10522;52.198;9.890;2024-03-02T02:20:12;25.53;;;14.50;;
20721;SDS011;10522;52.198;9.890;2024-03-02T02:22:38;25.63;;;14.90;;
20721;SDS011;10522;52.198;9.890;2024-03-02T02:25:03;24.47;;;15.33;;
20721;SDS011;10522;52.198;9.890;2024-03-02T02:27:29;25.27;;;14.23;;
20721;SDS011;10522;52.198;9.890;2024-03-02T02:29:55;24.77;;;14.90;;
20721;SDS011;10522;52.198;9.890;2024-03-02T02:32:21;24.70;;;15.50;;
20721;SDS011;10522;52.198;9.890;2024-03-02T02:34:47;28.17;;;16.23;;
20721;SDS011;10522;52.198;9.890;2024-03-02T02:37:17;30.07;;;16.27;;
20721;SDS011;10522;52.198;9.890;2024-03-02T02:39:43;23.77;;;14.97;;
20721;SDS011;10522;52.198;9.890;2024-03-02T02:42:09;27.57;;;16.63;;
20721;SDS011;10522;52.198;9.890;2024-03-02T02:44:34;25.80;;;14.97;;
20721;SDS011;10522;52.198;9.890;2024-03-02T02:47:00;26.43;;;15.87;;
20721;SDS011;10522;52.198;9.890;2024-03-02T02:49:26;26.33;;;15.47;;
20721;SDS011;10522;52.198;9.890;2024-03-02T02:51:51;23.27;;;15.70;;
20721;SDS011;10522;52.198;9.890;2024-03-02T02:54:17;25.10;;;15.77;;
20721;SDS011;10522;52.198;9.890;2024-03-02T02:56:43;24.17;;;15.40;;
20721;SDS011;10522;52.198;9.890;2024-03-02T02:59:08;24.40;;;15.73;;
20721;SDS011;10522;52.198;9.890;2024-03-02T03:01:34;27.93;;;16.23;;
20721;SDS011;10522;52.198;9.890;2024-03-02T03:04:00;25.80;;;16.07;;
20721;SDS011;10522;52.198;9.890;2024-03-02T03:06:25;28.87;;;15.87;;
20721;SDS011;10522;52.198;9.890;2024-03-02T03:08:51;23.80;;;15.10;;
20721;SDS011;10522;52.198;9.890;2024-03-02T03:11:16;27.33;;;15.27;;
20721;SDS011;10522;52.198;9.890;2024-03-02T03:13:42;24.80;;;15.30;;
20721;SDS011;10522;52.198;9.890;2024-03-02T03:16:08;26.63;;;14.37;;
20721;SDS011;10522;52.198;9.890;2024-03-02T03:18:33;24.00;;;15.67;;
20721;SDS011;10522;52.198;9.890;2024-03-02T03:20:59;23.73;;;14.63;;
20721;SDS011;10522;52.198;9.890;2024-03-02T03:23:25;24.63;;;14.07;;
20721;SDS011;10522;52.198;9.890;2024-03-02T03:25:50;20.30;;;12.60;;
20721;SDS011;10522;52.198;9.890;2024-03-02T03:28:22;22.93;;;13.60;;
20721;SDS011;10522;52.198;9.890;2024-03-02T03:30:47;23.07;;;13.23;;
20721;SDS011;10522;52.198;9.890;2024-03-02T03:33:13;23.73;;;12.57;;
20721;SDS011;10522;52.198;9.890;2024-03-02T03:35:39;20.73;;;13.37;;
20721;SDS011;10522;52.198;9.890;2024-03-02T03:38:04;21.97;;;13.33;;
20721;SDS011;10522;52.198;9.890;2024-03-02T03:40:30;20.67;;;12.60;;
20721;SDS011;10522;52.198;9.890;2024-03-02T03:42:56;24.87;;;14.23;;
20721;SDS011;10522;52.198;9.890;2024-03-02T03:45:22;19.40;;;13.03;;
20721;SDS011;10522;52.198;9.890;2024-03-02T03:47:50;20.73;;;12.50;;
20721;SDS011;10522;52.198;9.890;2024-03-02T03:50:15;22.37;;;12.73;;
20721;SDS011;10522;52.198;9.890;2024-03-02T03:52:41;23.07;;;13.80;;
20721;SDS011;10522;52.198;9.890;2024-03-02T03:55:07;22.43;;;13.50;;
20721;SDS011;10522;52.198;9.890;2024-03-02T03:57:33;23.37;;;13.67;;
20721;SDS011;10522;52.198;9.890;2024-03-02T03:59:59;20.40;;;13.23;;
20721;SDS011;10522;52.198;9.890;2024-03-02T04:02:25;22.37;;;14.37;;
20721;SDS011;10522;52.198;9.890;2024-03-02T04:04:51;22.53;;;13.67;;
20721;SDS011;10522;52.198;9.890;2024-03-02T04:07:16;26.10;;;13.60;;
20721;SDS011;10522;52.198;9.890;2024-03-02T04:09:42;25.13;;;14.17;;
20721;SDS011;10522;52.198;9.890;2024-03-02T04:12:08;23.13;;;14.53;;
20721;SDS011;10522;52.198;9.890;2024-03-02T04:14:33;28.73;;;14.93;;
20721;SDS011;10522;52.198;9.890;2024-03-02T04:16:59;22.43;;;13.13;;
20721;SDS011;10522;52.198;9.890;2024-03-02T04:19:25;23.63;;;14.43;;
20721;SDS011;10522;52.198;9.890;2024-03-02T04:21:50;24.57;;;14.83;;
20721;SDS011;10522;52.198;9.890;2024-03-02T04:24:16;23.63;;;13.60;;
20721;SDS011;10522;52.198;9.890;2024-03-02T04:26:42;23.57;;;14.23;;
20721;SDS011;10522;52.198;9.890;2024-03-02T04:29:07;24.10;;;15.27;;
20721;SDS011;10522;52.198;9.890;2024-03-02T04:31:33;25.23;;;14.80;;
20721;SDS011;10522;52.198;9.890;2024-03-02T04:33:58;21.80;;;14.10;;
20721;SDS011;10522;52.198;9.890;2024-03-02T04:36:27;25.43;;;14.87;;
20721;SDS011;10522;52.198;9.890;2024-03-02T04:38:53;23.50;;;15.03;;
20721;SDS011;10522;52.198;9.890;2024-03-02T04:41:18;25.83;;;15.20;;
20721;SDS011;10522;52.198;9.890;2024-03-02T04:43:44;25.37;;;15.67;;
20721;SDS011;10522;52.198;9.890;2024-03-02T04:46:10;27.97;;;16.20;;
20721;SDS011;10522;52.198;9.890;2024-03-02T04:48:35;24.53;;;16.03;;
20721;SDS011;10522;52.198;9.890;2024-03-02T04:51:01;24.97;;;16.37;;
20721;SDS011;10522;52.198;9.890;2024-03-02T04:53:27;27.47;;;17.90;;
20721;SDS011;10522;52.198;9.890;2024-03-02T04:55:52;26.77;;;15.90;;
20721;SDS011;10522;52.198;9.890;2024-03-02T04:58:37;24.70;;;15.80;;
20721;SDS011;10522;52.198;9.890;2024-03-02T05:01:02;27.20;;;16.83;;
20721;SDS011;10522;52.198;9.890;2024-03-02T05:03:28;25.97;;;16.17;;
20721;SDS011;10522;52.198;9.890;2024-03-02T05:05:54;31.37;;;17.53;;
20721;SDS011;10522;52.198;9.890;2024-03-02T05:08:19;27.77;;;17.47;;
20721;SDS011;10522;52.198;9.890;2024-03-02T05:10:45;29.53;;;17.13;;
20721;SDS011;10522;52.198;9.890;2024-03-02T05:13:11;30.00;;;16.63;;
20721;SDS011;10522;52.198;9.890;2024-03-02T05:15:36;28.07;;;17.67;;
20721;SDS011;10522;52.198;9.890;2024-03-02T05:18:02;26.87;;;16.77;;
20721;SDS011;10522;52.198;9.890;2024-03-02T05:20:30;28.97;;;16.60;;
20721;SDS011;10522;52.198;9.890;2024-03-02T05:22:55;28.10;;;16.03;;
20721;SDS011;10522;52.198;9.890;2024-03-02T05:25:21;27.17;;;16.90;;
20721;SDS011;10522;52.198;9.890;2024-03-02T05:27:47;25.47;;;16.73;;
20721;SDS011;10522;52.198;9.890;2024-03-02T05:30:12;26.80;;;16.43;;
20721;SDS011;10522;52.198;9.890;2024-03-02T05:32:38;29.10;;;17.90;;
20721;SDS011;10522;52.198;9.890;2024-03-02T05:35:04;27.80;;;17.17;;
20721;SDS011;10522;52.198;9.890;2024-03-02T05:37:30;28.43;;;16.03;;
20721;SDS011;10522;52.198;9.890;2024-03-02T05:39:56;27.30;;;16.80;;
20721;SDS011;10522;52.198;9.890;2024-03-02T05:42:21;27.63;;;16.33;;
20721;SDS011;10522;52.198;9.890;2024-03-02T05:44:47;25.00;;;16.20;;
20721;SDS011;10522;52.198;9.890;2024-03-02T05:47:13;29.30;;;17.40;;
20721;SDS011;10522;52.198;9.890;2024-03-02T05:49:38;28.27;;;17.83;;
20721;SDS011;10522;52.198;9.890;2024-03-02T05:52:04;26.63;;;16.47;;
20721;SDS011;10522;52.198;9.890;2024-03-02T05:54:30;27.07;;;16.83;;
20721;SDS011;10522;52.198;9.890;2024-03-02T05:56:55;24.90;;;16.73;;
20721;SDS011;10522;52.198;9.890;2024-03-02T05:59:21;24.97;;;16.20;;
20721;SDS011;10522;52.198;9.890;2024-03-02T06:01:47;27.43;;;16.37;;
20721;SDS011;10522;52.198;9.890;2024-03-02T06:04:15;28.40;;;16.67;;
20721;SDS011;10522;52.198;9.890;2024-03-02T06:06:41;27.77;;;16.57;;
20721;SDS011;10522;52.198;9.890;2024-03-02T06:09:07;25.13;;;15.37;;
20721;SDS011;10522;52.198;9.890;2024-03-02T06:11:39;28.03;;;17.00;;
20721;SDS011;10522;52.198;9.890;2024-03-02T06:14:09;29.57;;;16.90;;
20721;SDS011;10522;52.198;9.890;2024-03-02T06:17:01;27.53;;;16.13;;
20721;SDS011;10522;52.198;9.890;2024-03-02T06:19:34;24.90;;;15.90;;
20721;SDS011;10522;52.198;9.890;2024-03-02T06:22:05;29.27;;;17.63;;
20721;SDS011;10522;52.198;9.890;2024-03-02T06:24:30;24.63;;;15.60;;
20721;SDS011;10522;52.198;9.890;2024-03-02T06:26:56;27.63;;;16.23;;
20721;SDS011;10522;52.198;9.890;2024-03-02T06:29:22;28.80;;;17.57;;
20721;SDS011;10522;52.198;9.890;2024-03-02T06:31:47;26.43;;;16.10;;
20721;SDS011;10522;52.198;9.890;2024-03-02T06:34:13;23.80;;;15.50;;
20721;SDS011;10522;52.198;9.890;2024-03-02T06:36:39;28.83;;;16.47;;
20721;SDS011;10522;52.198;9.890;2024-03-02T06:39:06;26.57;;;15.80;;
20721;SDS011;10522;52.198;9.890;2024-03-02T06:41:31;28.93;;;16.73;;
20721;SDS011;10522;52.198;9.890;2024-03-02T06:43:57;25.73;;;16.00;;
20721;SDS011;10522;52.198;9.890;2024-03-02T06:46:25;28.93;;;16.47;;
20721;SDS011;10522;52.198;9.890;2024-03-02T06:48:51;27.10;;;16.63;;
20721;SDS011;10522;52.198;9.890;2024-03-02T06:51:17;24.03;;;15.77;;
20721;SDS011;10522;52.198;9.890;2024-03-02T06:53:42;29.13;;;17.10;;
20721;SDS011;10522;52.198;9.890;2024-03-02T06:56:08;25.13;;;16.57;;
20721;SDS011;10522;52.198;9.890;2024-03-02T06:58:34;27.20;;;16.77;;
20721;SDS011;10522;52.198;9.890;2024-03-02T07:00:59;27.50;;;17.00;;
20721;SDS011;10522;52.198;9.890;2024-03-02T07:03:25;28.07;;;16.70;;
20721;SDS011;10522;52.198;9.890;2024-03-02T07:05:51;27.50;;;15.67;;
20721;SDS011;10522;52.198;9.890;2024-03-02T07:08:16;26.27;;;15.27;;
20721;SDS011;10522;52.198;9.890;2024-03-02T07:10:42;26.57;;;16.27;;
20721;SDS011;10522;52.198;9.890;2024-03-02T07:13:08;29.17;;;15.43;;
20721;SDS011;10522;52.198;9.890;2024-03-02T07:15:33;26.10;;;16.20;;
20721;SDS011;10522;52.198;9.890;2024-03-02T07:18:19;26.43;;;15.53;;
20721;SDS011;10522;52.198;9.890;2024-03-02T07:20:45;26.63;;;16.00;;
20721;SDS011;10522;52.198;9.890;2024-03-02T07:23:10;26.53;;;15.90;;
20721;SDS011;10522;52.198;9.890;2024-03-02T07:25:36;25.67;;;15.27;;
20721;SDS011;10522;52.198;9.890;2024-03-02T07:28:04;25.07;;;15.30;;
20721;SDS011;10522;52.198;9.890;2024-03-02T07:30:32;24.23;;;15.57;;
20721;SDS011;10522;52.198;9.890;2024-03-02T07:32:58;25.10;;;15.97;;
20721;SDS011;10522;52.198;9.890;2024-03-02T07:35:24;28.70;;;16.27;;
20721;SDS011;10522;52.198;9.890;2024-03-02T07:37:52;27.23;;;16.70;;
20721;SDS011;10522;52.198;9.890;2024-03-02T07:40:20;26.27;;;16.63;;
20721;SDS011;10522;52.198;9.890;2024-03-02T07:42:46;24.43;;;15.03;;
20721;SDS011;10522;52.198;9.890;2024-03-02T07:45:11;24.03;;;14.93;;
20721;SDS011;10522;52.198;9.890;2024-03-02T07:47:37;29.20;;;16.53;;
20721;SDS011;10522;52.198;9.890;2024-03-02T07:50:03;28.13;;;16.13;;
20721;SDS011;10522;52.198;9.890;2024-03-02T07:52:31;24.60;;;14.80;;
20721;SDS011;10522;52.198;9.890;2024-03-02T07:54:58;22.63;;;13.57;;
20721;SDS011;10522;52.198;9.890;2024-03-02T07:57:24;24.97;;;14.90;;
20721;SDS011;10522;52.198;9.890;2024-03-02T07:59:50;23.03;;;14.43;;
20721;SDS011;10522;52.198;9.890;2024-03-02T08:02:16;23.53;;;15.03;;
20721;SDS011;10522;52.198;9.890;2024-03-02T08:04:44;27.90;;;15.47;;
20721;SDS011;10522;52.198;9.890;2024-03-02T08:07:11;26.90;;;15.03;;
20721;SDS011;10522;52.198;9.890;2024-03-02T08:09:37;23.27;;;15.37;;
20721;SDS011;10522;52.198;9.890;2024-03-02T08:12:02;21.77;;;14.23;;
20721;SDS011;10522;52.198;9.890;2024-03-02T08:14:28;27.30;;;15.97;;
20721;SDS011;10522;52.198;9.890;2024-03-02T08:16:54;22.60;;;14.40;;
20721;SDS011;10522;52.198;9.890;2024-03-02T08:19:20;27.33;;;14.67;;
20721;SDS011;10522;52.198;9.890;2024-03-02T08:21:45;22.33;;;13.97;;
20721;SDS011;10522;52.198;9.890;2024-03-02T08:24:11;24.37;;;15.07;;
20721;SDS011;10522;52.198;9.890;2024-03-02T08:26:36;23.73;;;14.67;;
20721;SDS011;10522;52.198;9.890;2024-03-02T08:29:02;24.30;;;14.50;;
20721;SDS011;10522;52.198;9.890;2024-03-02T08:31:28;25.00;;;15.00;;
20721;SDS011;10522;52.198;9.890;2024-03-02T08:33:54;24.37;;;14.33;;
20721;SDS011;10522;52.198;9.890;2024-03-02T08:36:22;24.00;;;15.40;;
20721;SDS011;10522;52.198;9.890;2024-03-02T08:38:48;25.83;;;15.83;;
20721;SDS011;10522;52.198;9.890;2024-03-02T08:41:15;24.27;;;15.43;;
20721;SDS011;10522;52.198;9.890;2024-03-02T08:43:42;22.23;;;14.83;;
20721;SDS011;10522;52.198;9.890;2024-03-02T08:46:08;24.77;;;14.77;;
20721;SDS011;10522;52.198;9.890;2024-03-02T08:48:35;23.60;;;15.20;;
20721;SDS011;10522;52.198;9.890;2024-03-02T08:51:00;25.83;;;15.30;;
20721;SDS011;10522;52.198;9.890;2024-03-02T08:53:32;23.30;;;14.63;;
20721;SDS011;10522;52.198;9.890;2024-03-02T08:55:57;22.30;;;13.67;;
20721;SDS011;10522;52.198;9.890;2024-03-02T08:58:23;23.17;;;15.03;;
20721;SDS011;10522;52.198;9.890;2024-03-02T09:00:49;23.63;;;14.53;;
20721;SDS011;10522;52.198;9.890;2024-03-02T09:03:14;21.90;;;14.50;;
20721;SDS011;10522;52.198;9.890;2024-03-02T09:05:45;21.40;;;12.77;;
20721;SDS011;10522;52.198;9.890;2024-03-02T09:08:15;22.77;;;12.53;;
20721;SDS011;10522;52.198;9.890;2024-03-02T09:10:42;19.63;;;13.37;;
20721;SDS011;10522;52.198;9.890;2024-03-02T09:13:12;22.73;;;13.67;;
20721;SDS011;10522;52.198;9.890;2024-03-02T09:15:41;19.67;;;11.93;;
20721;SDS011;10522;52.198;9.890;2024-03-02T09:24:33;20.73;;;10.87;;
20721;SDS011;10522;52.198;9.890;2024-03-02T09:27:18;17.63;;;11.80;;
20721;SDS011;10522;52.198;9.890;2024-03-02T09:29:49;20.43;;;13.07;;
20721;SDS011;10522;52.198;9.890;2024-03-02T09:32:23;20.00;;;12.20;;
20721;SDS011;10522;52.198;9.890;2024-03-02T09:35:27;18.77;;;11.63;;
20721;SDS011;10522;52.198;9.890;2024-03-02T09:41:13;20.17;;;11.10;;
20721;SDS011;10522;52.198;9.890;2024-03-02T09:44:07;19.63;;;11.73;;
20721;SDS011;10522;52.198;9.890;2024-03-02T09:46:48;17.50;;;12.00;;
20721;SDS011;10522;52.198;9.890;2024-03-02T09:50:15;17.80;;;10.90;;
20721;SDS011;10522;52.198;9.890;2024-03-02T09:52:49;17.13;;;10.60;;
20721;SDS011;10522;52.198;9.890;2024-03-02T10:06:21;13.87;;;8.97;;
20721;SDS011;10522;52.198;9.890;2024-03-02T10:08:57;16.73;;;10.83;;
20721;SDS011;10522;52.198;9.890;2024-03-02T10:11:35;16.47;;;9.73;;
20721;SDS011;10522;52.198;9.890;2024-03-02T10:25:39;16.13;;;8.93;;
20721;SDS011;10522;52.198;9.890;2024-03-02T10:28:25;12.70;;;8.30;;
20721;SDS011;10522;52.198;9.890;2024-03-02T10:30:55;14.27;;;8.90;;
20721;SDS011;10522;52.198;9.890;2024-03-02T10:33:27;12.77;;;8.70;;
20721;SDS011;10522;52.198;9.890;2024-03-02T10:35:53;16.23;;;9.20;;
20721;SDS011;10522;52.198;9.890;2024-03-02T10:38:20;14.73;;;8.60;;
20721;SDS011;10522;52.198;9.890;2024-03-02T10:40:49;13.10;;;8.23;;
20721;SDS011;10522;52.198;9.890;2024-03-02T10:43:14;12.57;;;8.00;;
20721;SDS011;10522;52.198;9.890;2024-03-02T10:45:42;13.50;;;8.63;;
20721;SDS011;10522;52.198;9.890;2024-03-02T10:48:09;15.10;;;8.77;;
20721;SDS011;10522;52.198;9.890;2024-03-02T10:50:36;14.27;;;8.47;;
20721;SDS011;10522;52.198;9.890;2024-03-02T10:53:02;16.23;;;8.97;;
20721;SDS011;10522;52.198;9.890;2024-03-02T10:55:30;11.30;;;7.80;;
20721;SDS011;10522;52.198;9.890;2024-03-02T10:57:56;12.70;;;7.37;;
20721;SDS011;10522;52.198;9.890;2024-03-02T11:00:27;12.73;;;7.30;;
20721;SDS011;10522;52.198;9.890;2024-03-02T11:03:02;11.93;;;7.17;;
20721;SDS011;10522;52.198;9.890;2024-03-02T11:05:36;10.70;;;6.73;;
20721;SDS011;10522;52.198;9.890;2024-03-02T11:08:07;10.40;;;6.50;;
20721;SDS011;10522;52.198;9.890;2024-03-02T11:10:46;12.70;;;7.37;;
20721;SDS011;10522;52.198;9.890;2024-03-02T11:13:18;12.27;;;7.80;;
20721;SDS011;10522;52.198;9.890;2024-03-02T11:15:51;12.53;;;7.57;;
20721;SDS011;10522;52.198;9.890;2024-03-02T11:18:20;11.73;;;7.27;;
20721;SDS011;10522;52.198;9.890;2024-03-02T11:20:46;15.33;;;8.40;;
20721;SDS011;10522;52.198;9.890;2024-03-02T11:23:34;16.23;;;9.80;;
20721;SDS011;10522;52.198;9.890;2024-03-02T11:32:22;12.63;;;7.43;;
20721;SDS011;10522;52.198;9.890;2024-03-02T11:34:53;11.43;;;7.77;;
20721;SDS011;10522;52.198;9.890;2024-03-02T11:37:27;12.30;;;7.10;;
20721;SDS011;10522;52.198;9.890;2024-03-02T11:40:00;11.83;;;7.17;;
20721;SDS011;10522;52.198;9.890;2024-03-02T11:42:49;9.67;;;6.53;;
20721;SDS011;10522;52.198;9.890;2024-03-02T11:45:22;13.00;;;6.40;;
20721;SDS011;10522;52.198;9.890;2024-03-02T11:48:13;10.00;;;6.47;;
20721;SDS011;10522;52.198;9.890;2024-03-02T11:50:57;11.63;;;5.97;;
20721;SDS011;10522;52.198;9.890;2024-03-02T11:53:27;12.27;;;5.90;;
20721;SDS011;10522;52.198;9.890;2024-03-02T11:55:58;10.60;;;6.03;;
20721;SDS011;10522;52.198;9.890;2024-03-02T11:58:24;13.27;;;6.73;;
20721;SDS011;10522;52.198;9.890;2024-03-02T12:00:54;10.70;;;6.20;;
20721;SDS011;10522;52.198;9.890;2024-03-02T12:03:30;9.87;;;5.57;;
20721;SDS011;10522;52.198;9.890;2024-03-02T12:06:00;8.87;;;5.63;;
20721;SDS011;10522;52.198;9.890;2024-03-02T12:08:26;8.70;;;5.20;;
20721;SDS011;10522;52.198;9.890;2024-03-02T12:10:55;7.70;;;5.70;;
20721;SDS011;10522;52.198;9.890;2024-03-02T12:13:23;10.73;;;5.80;;
20721;SDS011;10522;52.198;9.890;2024-03-02T12:15:52;9.20;;;5.93;;
20721;SDS011;10522;52.198;9.890;2024-03-02T12:18:20;12.30;;;5.70;;
20721;SDS011;10522;52.198;9.890;2024-03-02T12:20:45;9.30;;;5.60;;
20721;SDS011;10522;52.198;9.890;2024-03-02T12:23:13;11.47;;;6.03;;
20721;SDS011;10522;52.198;9.890;2024-03-02T12:25:39;12.40;;;7.10;;
20721;SDS011;10522;52.198;9.890;2024-03-02T12:28:05;12.67;;;7.37;;
20721;SDS011;10522;52.198;9.890;2024-03-02T12:30:32;10.90;;;7.17;;
20721;SDS011;10522;52.198;9.890;2024-03-02T12:33:00;11.70;;;6.97;;
20721;SDS011;10522;52.198;9.890;2024-03-02T12:35:27;8.90;;;6.07;;
20721;SDS011;10522;52.198;9.890;2024-03-02T12:37:53;11.97;;;7.27;;
20721;SDS011;10522;52.198;9.890;2024-03-02T12:40:19;16.53;;;10.23;;
20721;SDS011;10522;52.198;9.890;2024-03-02T12:42:47;12.17;;;7.90;;
20721;SDS011;10522;52.198;9.890;2024-03-02T12:45:15;13.93;;;6.90;;
20721;SDS011;10522;52.198;9.890;2024-03-02T12:47:41;11.13;;;6.73;;
20721;SDS011;10522;52.198;9.890;2024-03-02T12:50:07;10.93;;;7.00;;
20721;SDS011;10522;52.198;9.890;2024-03-02T12:52:34;11.97;;;7.37;;
20721;SDS011;10522;52.198;9.890;2024-03-02T12:55:01;9.57;;;6.70;;
20721;SDS011;10522;52.198;9.890;2024-03-02T12:57:29;10.80;;;7.37;;
20721;SDS011;10522;52.198;9.890;2024-03-02T13:02:35;9.57;;;5.57;;
20721;SDS011;10522;52.198;9.890;2024-03-02T13:05:18;9.40;;;5.97;;
20721;SDS011;10522;52.198;9.890;2024-03-02T13:07:46;10.00;;;5.97;;
20721;SDS011;10522;52.198;9.890;2024-03-02T13:10:13;9.73;;;5.80;;
20721;SDS011;10522;52.198;9.890;2024-03-02T13:12:44;7.53;;;4.67;;
20721;SDS011;10522;52.198;9.890;2024-03-02T13:15:13;12.37;;;4.97;;
20721;SDS011;10522;52.198;9.890;2024-03-02T13:17:51;8.10;;;4.80;;
20721;SDS011;10522;52.198;9.890;2024-03-02T13:20:16;7.13;;;5.17;;
20721;SDS011;10522;52.198;9.890;2024-03-02T13:22:46;7.63;;;5.17;;
20721;SDS011;10522;52.198;9.890;2024-03-02T13:25:12;5.20;;;3.87;;
20721;SDS011;10522;52.198;9.890;2024-03-02T13:27:38;6.67;;;4.40;;
20721;SDS011;10522;52.198;9.890;2024-03-02T13:30:04;7.60;;;4.50;;
20721;SDS011;10522;52.198;9.890;2024-03-02T13:32:34;7.30;;;4.23;;
20721;SDS011;10522;52.198;9.890;2024-03-02T13:34:59;6.20;;;3.70;;
20721;SDS011;10522;52.198;9.890;2024-03-02T13:37:25;9.30;;;3.30;;
20721;SDS011;10522;52.198;9.890;2024-03-02T13:39:51;6.07;;;3.87;;
20721;SDS011;10522;52.198;9.890;2024-03-02T13:42:17;20.20;;;11.13;;
20721;SDS011;10522;52.198;9.890;2024-03-02T13:44:48;7.30;;;3.77;;
20721;SDS011;10522;52.198;9.890;2024-03-02T13:47:17;7.83;;;3.93;;
20721;SDS011;10522;52.198;9.890;2024-03-02T13:49:44;7.17;;;4.07;;
20721;SDS011;10522;52.198;9.890;2024-03-02T13:52:15;8.17;;;4.93;;
20721;SDS011;10522;52.198;9.890;2024-03-02T13:54:44;6.00;;;3.73;;
20721;SDS011;10522;52.198;9.890;2024-03-02T13:57:10;5.07;;;3.20;;
20721;SDS011;10522;52.198;9.890;2024-03-02T13:59:37;6.43;;;3.70;;
20721;SDS011;10522;52.198;9.890;2024-03-02T14:02:07;9.70;;;4.37;;
20721;SDS011;10522;52.198;9.890;2024-03-02T14:04:33;6.03;;;4.27;;
20721;SDS011;10522;52.198;9.890;2024-03-02T14:07:01;7.07;;;4.47;;
20721;SDS011;10522;52.198;9.890;2024-03-02T14:09:27;10.30;;;4.93;;
20721;SDS011;10522;52.198;9.890;2024-03-02T14:11:54;10.00;;;5.77;;
20721;SDS011;10522;52.198;9.890;2024-03-02T14:14:21;7.67;;;5.03;;
20721;SDS011;10522;52.198;9.890;2024-03-02T14:16:48;8.23;;;5.37;;
20721;SDS011;10522;52.198;9.890;2024-03-02T14:19:14;8.10;;;4.87;;
20721;SDS011;10522;52.198;9.890;2024-03-02T14:21:39;8.77;;;5.53;;
20721;SDS011;10522;52.198;9.890;2024-03-02T14:24:05;9.67;;;5.57;;
20721;SDS011;10522;52.198;9.890;2024-03-02T14:26:34;8.87;;;5.33;;
20721;SDS011;10522;52.198;9.890;2024-03-02T14:29:01;5.97;;;4.07;;
20721;SDS011;10522;52.198;9.890;2024-03-02T14:31:28;8.80;;;5.27;;
20721;SDS011;10522;52.198;9.890;2024-03-02T14:33:54;9.20;;;4.93;;
20721;SDS011;10522;52.198;9.890;2024-03-02T14:36:20;6.10;;;3.83;;
20721;SDS011;10522;52.198;9.890;2024-03-02T14:38:45;6.83;;;4.03;;
20721;SDS011;10522;52.198;9.890;2024-03-02T14:41:11;7.50;;;4.23;;
20721;SDS011;10522;52.198;9.890;2024-03-02T14:43:38;7.50;;;3.97;;
20721;SDS011;10522;52.198;9.890;2024-03-02T14:46:04;6.47;;;4.47;;
20721;SDS011;10522;52.198;9.890;2024-03-02T14:48:30;7.53;;;5.00;;
20721;SDS011;10522;52.198;9.890;2024-03-02T14:50:56;7.07;;;4.27;;
20721;SDS011;10522;52.198;9.890;2024-03-02T14:53:22;7.57;;;4.73;;
20721;SDS011;10522;52.198;9.890;2024-03-02T14:55:48;8.57;;;4.87;;
20721;SDS011;10522;52.198;9.890;2024-03-02T14:58:14;6.70;;;4.63;;
20721;SDS011;10522;52.198;9.890;2024-03-02T15:00:41;13.20;;;7.93;;
20721;SDS011;10522;52.198;9.890;2024-03-02T15:03:06;9.60;;;5.33;;
20721;SDS011;10522;52.198;9.890;2024-03-02T15:05:33;6.80;;;4.63;;
20721;SDS011;10522;52.198;9.890;2024-03-02T15:08:00;8.67;;;5.20;;
20721;SDS011;10522;52.198;9.890;2024-03-02T15:10:27;9.20;;;4.70;;
20721;SDS011;10522;52.198;9.890;2024-03-02T15:12:53;7.57;;;4.93;;
20721;SDS011;10522;52.198;9.890;2024-03-02T15:15:19;6.83;;;4.50;;